createdAt,value
2023-08-24T00:00:23.383Z,6.05
2023-08-24T00:02:51.027Z,5.95
2023-08-24T00:05:17.970Z,3.70
2023-08-24T00:07:44.935Z,3.53
2023-08-24T00:10:12.195Z,4.27
2023-08-24T00:12:40.393Z,8.05
2023-08-24T00:15:10.203Z,7.95
2023-08-24T00:17:39.086Z,6.20
2023-08-24T00:20:11.652Z,6.50
2023-08-24T00:22:40.613Z,7.45
2023-08-24T00:25:08.965Z,8.23
2023-08-24T00:27:36.771Z,4.57
2023-08-24T00:30:07.798Z,6.72
2023-08-24T00:32:36.070Z,10.25
2023-08-24T00:35:04.084Z,10.15
2023-08-24T00:37:31.677Z,9.32
2023-08-24T00:40:00.415Z,6.40
2023-08-24T00:42:27.261Z,5.80
2023-08-24T00:44:54.125Z,6.60
2023-08-24T00:47:21.261Z,5.93
2023-08-24T00:49:48.772Z,5.57
2023-08-24T00:52:15.866Z,5.15
2023-08-24T00:54:43.018Z,7.07
2023-08-24T00:57:11.338Z,7.35
2023-08-24T00:59:38.666Z,6.35
2023-08-24T01:02:05.659Z,6.07
2023-08-24T01:04:32.596Z,5.97
2023-08-24T01:06:59.759Z,8.38
2023-08-24T01:09:26.837Z,8.83
2023-08-24T01:12:29.228Z,10.07
2023-08-24T01:15:08.888Z,7.60
2023-08-24T01:17:39.193Z,9.35
2023-08-24T01:20:07.364Z,8.55
2023-08-24T01:22:42.097Z,7.38
2023-08-24T01:25:14.451Z,5.30
2023-08-24T01:27:42.233Z,9.27
2023-08-24T01:30:10.082Z,7.13
2023-08-24T01:32:38.043Z,7.75
2023-08-24T01:35:09.677Z,6.55
2023-08-24T01:37:39.416Z,8.05
2023-08-24T01:40:29.026Z,12.13
2023-08-24T01:43:06.763Z,6.88
2023-08-24T01:45:34.862Z,10.00
2023-08-24T01:48:04.194Z,8.67
2023-08-24T01:50:32.308Z,11.70
2023-08-24T01:52:59.673Z,8.13
2023-08-24T01:55:27.079Z,9.27
2023-08-24T01:57:56.644Z,9.23
2023-08-24T02:00:23.777Z,10.65
2023-08-24T02:02:50.628Z,11.20
2023-08-24T02:05:18.368Z,8.23
2023-08-24T02:07:51.921Z,8.35
2023-08-24T02:10:19.148Z,8.48
2023-08-24T02:12:46.018Z,7.88
2023-08-24T02:15:13.129Z,8.10
2023-08-24T02:17:40.044Z,15.50
2023-08-24T02:20:09.895Z,9.75
2023-08-24T02:22:36.845Z,10.55
2023-08-24T02:25:05.994Z,8.20
2023-08-24T02:27:33.977Z,10.57
2023-08-24T02:30:01.567Z,8.63
2023-08-24T02:32:28.575Z,11.32
2023-08-24T02:34:55.539Z,11.77
2023-08-24T02:37:22.538Z,12.60
2023-08-24T02:39:49.636Z,10.80
2023-08-24T02:42:17.091Z,9.98
2023-08-24T02:44:44.368Z,13.63
2023-08-24T02:47:12.457Z,9.82
2023-08-24T02:49:39.875Z,8.98
2023-08-24T02:52:06.842Z,17.30
2023-08-24T02:54:34.012Z,12.60
2023-08-24T02:57:01.332Z,12.52
2023-08-24T02:59:28.281Z,17.17
2023-08-24T03:01:55.488Z,14.07
2023-08-24T03:04:23.597Z,13.85
2023-08-24T03:06:52.837Z,10.57
2023-08-24T03:09:19.949Z,13.80
2023-08-24T03:11:46.899Z,13.45
2023-08-24T03:14:13.965Z,11.38
2023-08-24T03:16:41.097Z,14.68
2023-08-24T03:19:08.452Z,14.77
2023-08-24T03:21:35.492Z,12.98
2023-08-24T03:24:05.480Z,16.13
2023-08-24T03:26:32.339Z,11.93
2023-08-24T03:28:59.201Z,11.93
2023-08-24T03:31:27.529Z,11.05
2023-08-24T03:33:55.074Z,11.35
2023-08-24T03:36:22.135Z,16.83
2023-08-24T03:38:49.177Z,15.23
2023-08-24T03:41:16.215Z,15.90
2023-08-24T03:43:43.124Z,14.55
2023-08-24T03:46:10.987Z,17.13
2023-08-24T03:48:42.001Z,15.13
2023-08-24T03:51:08.887Z,19.17
2023-08-24T03:53:37.705Z,18.00
2023-08-24T03:56:04.775Z,17.40
2023-08-24T03:58:32.620Z,18.52
2023-08-24T04:01:00.510Z,12.65
2023-08-24T04:03:27.844Z,16.75
2023-08-24T04:05:54.769Z,15.18
2023-08-24T04:08:21.859Z,18.85
2023-08-24T04:10:49.721Z,17.15
2023-08-24T04:13:16.590Z,13.30
2023-08-24T04:15:44.241Z,12.02
2023-08-24T04:18:12.247Z,17.05
2023-08-24T04:20:39.193Z,15.38
2023-08-24T04:23:07.934Z,16.95
2023-08-24T04:25:35.005Z,13.43
2023-08-24T04:28:01.868Z,15.37
2023-08-24T04:30:28.946Z,15.60
2023-08-24T04:32:55.903Z,13.95
2023-08-24T04:35:22.726Z,15.70
2023-08-24T04:37:50.289Z,13.82
2023-08-24T04:40:17.456Z,14.57
2023-08-24T04:42:44.262Z,16.23
2023-08-24T04:45:11.216Z,17.88
2023-08-24T04:47:38.078Z,16.98
2023-08-24T04:50:06.092Z,15.35
2023-08-24T04:52:33.160Z,13.30
2023-08-24T04:55:00.116Z,14.55
2023-08-24T04:57:27.134Z,17.00
2023-08-24T04:59:54.174Z,18.42
2023-08-24T05:02:21.050Z,17.70
2023-08-24T05:04:49.969Z,18.67
2023-08-24T05:07:17.194Z,17.48
2023-08-24T05:09:44.033Z,14.65
2023-08-24T05:12:10.918Z,17.75
2023-08-24T05:14:37.978Z,17.20
2023-08-24T05:17:06.075Z,16.88
2023-08-24T05:19:32.926Z,14.05
2023-08-24T05:21:59.818Z,16.88
2023-08-24T05:24:26.639Z,14.50
2023-08-24T05:26:53.517Z,12.75
2023-08-24T05:29:20.474Z,14.48
2023-08-24T05:31:47.563Z,16.33
2023-08-24T05:34:14.438Z,13.23
2023-08-24T05:36:41.514Z,15.93
2023-08-24T05:39:08.922Z,17.35
2023-08-24T05:41:37.910Z,13.65
2023-08-24T05:44:05.062Z,13.30
2023-08-24T05:46:32.024Z,19.00
2023-08-24T05:49:00.659Z,14.18
2023-08-24T05:51:27.765Z,18.73
2023-08-24T05:53:56.684Z,12.77
2023-08-24T05:56:23.755Z,17.17
2023-08-24T05:58:51.165Z,16.20
2023-08-24T06:01:18.289Z,13.35
2023-08-24T06:03:45.207Z,12.95
2023-08-24T06:06:12.466Z,16.13
2023-08-24T06:08:39.524Z,17.15
2023-08-24T06:11:06.726Z,13.55
2023-08-24T06:13:34.015Z,12.73
2023-08-24T06:16:01.208Z,13.43
2023-08-24T06:18:28.250Z,15.37
2023-08-24T06:20:55.235Z,12.48
2023-08-24T06:23:22.628Z,12.43
2023-08-24T06:25:49.897Z,18.33
2023-08-24T06:28:16.750Z,14.32
2023-08-24T06:30:48.410Z,13.88
2023-08-24T06:33:18.078Z,11.23
2023-08-24T06:35:45.017Z,12.63
2023-08-24T06:38:12.612Z,11.82
2023-08-24T06:40:40.173Z,13.23
2023-08-24T06:43:07.007Z,14.25
2023-08-24T06:45:34.076Z,14.00
2023-08-24T06:48:01.919Z,11.50
2023-08-24T06:50:28.934Z,15.07
2023-08-24T06:52:55.753Z,17.00
2023-08-24T06:55:22.928Z,10.82
2023-08-24T06:57:52.356Z,15.38
2023-08-24T07:00:22.880Z,12.10
2023-08-24T07:02:51.722Z,13.00
2023-08-24T07:05:21.814Z,11.13
2023-08-24T07:07:51.296Z,10.88
2023-08-24T07:10:19.019Z,11.27
2023-08-24T07:12:46.699Z,12.95
2023-08-24T07:15:14.134Z,15.88
2023-08-24T07:17:41.228Z,12.80
2023-08-24T07:20:12.630Z,11.50
2023-08-24T07:22:39.451Z,10.53
2023-08-24T07:25:07.093Z,10.65
2023-08-24T07:27:34.904Z,12.20
2023-08-24T07:30:07.999Z,12.32
2023-08-24T07:32:42.906Z,14.17
2023-08-24T07:35:10.030Z,11.40
2023-08-24T07:37:36.954Z,12.57
2023-08-24T07:40:05.071Z,11.77
2023-08-24T07:42:32.204Z,11.38
2023-08-24T07:44:59.498Z,12.98
2023-08-24T07:47:26.496Z,13.05
2023-08-24T07:49:53.507Z,12.35
2023-08-24T07:52:22.539Z,12.30
2023-08-24T07:54:49.482Z,12.73
2023-08-24T07:57:16.349Z,17.50
2023-08-24T07:59:43.217Z,11.57
2023-08-24T08:02:10.772Z,15.43
2023-08-24T08:04:38.001Z,14.77
2023-08-24T08:07:05.116Z,13.38
2023-08-24T08:09:32.017Z,13.90
2023-08-24T08:11:59.066Z,14.60
2023-08-24T08:14:27.432Z,11.98
2023-08-24T08:16:54.271Z,15.43
2023-08-24T08:19:22.854Z,12.57
2023-08-24T08:21:50.547Z,12.90
2023-08-24T08:24:25.042Z,12.27
2023-08-24T08:26:53.934Z,15.27
2023-08-24T08:29:20.822Z,15.02
2023-08-24T08:31:47.857Z,17.98
2023-08-24T08:34:14.970Z,15.65
2023-08-24T08:36:42.634Z,19.10
2023-08-24T08:39:09.786Z,17.35
2023-08-24T08:41:43.602Z,12.45
2023-08-24T08:44:12.853Z,15.23
2023-08-24T08:46:41.470Z,14.93
2023-08-24T08:49:10.593Z,15.73
2023-08-24T08:51:38.751Z,11.13
2023-08-24T08:54:09.198Z,13.98
2023-08-24T08:56:36.694Z,13.52
2023-08-24T08:59:05.577Z,12.77
2023-08-24T09:01:32.750Z,16.40
2023-08-24T09:04:00.292Z,14.70
2023-08-24T09:06:27.377Z,14.70
2023-08-24T09:08:54.420Z,13.00
2023-08-24T09:11:22.516Z,16.52
2023-08-24T09:13:49.420Z,17.35
2023-08-24T09:16:19.256Z,19.48
2023-08-24T09:18:48.275Z,17.55
2023-08-24T09:21:16.838Z,17.42
2023-08-24T09:23:54.222Z,13.70
2023-08-24T09:26:31.538Z,15.18
2023-08-24T09:28:58.992Z,16.15
2023-08-24T09:31:39.800Z,17.40
2023-08-24T09:34:07.737Z,17.83
2023-08-24T09:36:35.647Z,15.73
2023-08-24T09:39:08.100Z,14.82
2023-08-24T09:41:52.197Z,13.30
2023-08-24T09:44:19.786Z,15.02
2023-08-24T09:46:46.749Z,17.42
2023-08-24T09:49:13.775Z,17.77
2023-08-24T09:51:42.774Z,16.23
2023-08-24T09:54:11.087Z,16.10
2023-08-24T09:56:40.242Z,16.92
2023-08-24T09:59:19.257Z,18.42
2023-08-24T10:01:51.459Z,15.63
2023-08-24T10:04:23.917Z,16.30
2023-08-24T10:06:56.312Z,17.63
2023-08-24T10:09:54.544Z,17.88
2023-08-24T10:12:25.937Z,20.15
2023-08-24T10:14:57.366Z,18.87
2023-08-24T10:17:24.873Z,19.23
2023-08-24T10:19:53.684Z,14.20
2023-08-24T10:22:21.464Z,16.67
2023-08-24T10:24:54.868Z,20.13
2023-08-24T10:27:27.776Z,31.15
2023-08-24T10:29:54.950Z,17.17
2023-08-24T10:32:23.521Z,20.33
2023-08-24T10:34:51.045Z,18.08
2023-08-24T10:37:18.038Z,20.75
2023-08-24T10:39:47.253Z,25.47
2023-08-24T10:42:15.468Z,22.25
2023-08-24T10:44:46.928Z,18.75
2023-08-24T10:47:21.777Z,18.50
2023-08-24T10:49:58.028Z,20.73
2023-08-24T10:52:40.344Z,22.40
2023-08-24T10:55:24.476Z,19.33
2023-08-24T10:57:59.323Z,18.17
2023-08-24T11:00:30.904Z,19.27
2023-08-24T11:03:00.982Z,22.08
2023-08-24T11:05:33.686Z,21.05
2023-08-24T11:08:05.410Z,17.90
2023-08-24T11:10:42.429Z,22.98
2023-08-24T11:13:15.669Z,19.33
2023-08-24T11:15:56.083Z,18.00
2023-08-24T11:18:28.326Z,19.55
2023-08-24T11:20:57.130Z,16.85
2023-08-24T11:23:26.220Z,23.20
2023-08-24T11:25:57.490Z,20.83
2023-08-24T11:28:26.475Z,19.93
2023-08-24T11:30:53.828Z,21.95
2023-08-24T11:33:36.560Z,19.33
2023-08-24T11:36:08.385Z,22.60
2023-08-24T11:38:42.693Z,20.42
2023-08-24T11:41:20.094Z,19.08
2023-08-24T11:43:52.208Z,19.20
2023-08-24T11:46:20.008Z,18.05
2023-08-24T11:48:47.490Z,22.98
2023-08-24T11:51:16.175Z,19.83
2023-08-24T11:53:45.953Z,16.95
2023-08-24T11:56:14.168Z,22.08
2023-08-24T11:58:48.462Z,15.75
2023-08-24T12:01:16.439Z,19.07
2023-08-24T12:03:43.654Z,15.40
2023-08-24T12:06:15.737Z,17.17
2023-08-24T12:08:47.738Z,17.08
2023-08-24T12:11:15.598Z,19.58
2023-08-24T12:13:50.626Z,18.67
2023-08-24T12:16:18.971Z,21.38
2023-08-24T12:19:01.164Z,20.90
2023-08-24T12:21:29.000Z,18.65
2023-08-24T12:24:07.498Z,17.43
2023-08-24T12:26:37.930Z,15.70
2023-08-24T12:29:09.107Z,18.08
2023-08-24T12:31:37.365Z,15.27
2023-08-24T12:34:11.894Z,22.60
2023-08-24T12:36:40.358Z,16.90
2023-08-24T12:39:08.987Z,21.73
2023-08-24T12:41:36.037Z,17.38
2023-08-24T12:44:06.491Z,22.47
2023-08-24T12:46:38.411Z,22.33
2023-08-24T12:49:05.487Z,18.55
2023-08-24T12:51:32.451Z,16.25
2023-08-24T12:53:59.257Z,18.27
2023-08-24T12:56:26.219Z,19.25
2023-08-24T12:58:53.300Z,21.08
2023-08-24T13:01:20.218Z,22.85
2023-08-24T13:03:47.048Z,17.13
2023-08-24T13:06:24.335Z,22.83
2023-08-24T13:08:53.749Z,18.52
2023-08-24T13:11:20.830Z,22.95
2023-08-24T13:13:47.676Z,20.67
2023-08-24T13:16:15.034Z,19.83
2023-08-24T13:18:43.029Z,17.55
2023-08-24T13:21:09.874Z,19.50
2023-08-24T13:23:36.864Z,19.77
2023-08-24T13:26:03.694Z,17.15
2023-08-24T13:28:30.935Z,21.30
2023-08-24T13:30:58.033Z,17.83
2023-08-24T13:33:24.974Z,21.27
2023-08-24T13:35:51.790Z,23.13
2023-08-24T13:38:18.991Z,27.52
2023-08-24T13:40:47.458Z,20.30
2023-08-24T13:43:17.168Z,22.00
2023-08-24T13:45:44.279Z,24.73
2023-08-24T13:48:11.320Z,16.63
2023-08-24T13:50:38.421Z,17.38
2023-08-24T13:53:05.283Z,15.25
2023-08-24T13:55:33.345Z,16.20
2023-08-24T13:58:00.332Z,18.30
2023-08-24T14:00:27.713Z,17.45
2023-08-24T14:02:55.050Z,19.95
2023-08-24T14:05:22.586Z,20.10
2023-08-24T14:07:50.162Z,19.83
2023-08-24T14:10:17.140Z,19.43
2023-08-24T14:12:43.997Z,19.60
2023-08-24T14:15:12.316Z,21.55
2023-08-24T14:17:39.819Z,16.55
2023-08-24T14:20:07.381Z,19.45
2023-08-24T14:22:34.437Z,21.90
2023-08-24T14:25:01.817Z,19.42
2023-08-24T14:27:28.639Z,15.98
2023-08-24T14:29:55.553Z,19.20
2023-08-24T14:32:23.936Z,17.38
2023-08-24T14:34:51.049Z,20.25
2023-08-24T14:37:17.939Z,19.92
2023-08-24T14:39:44.771Z,19.57
2023-08-24T14:42:11.575Z,16.65
2023-08-24T14:44:38.566Z,18.45
2023-08-24T14:47:05.722Z,17.92
2023-08-24T14:49:33.464Z,8.63
2023-08-24T14:52:00.320Z,14.32
2023-08-24T14:54:27.119Z,12.95
2023-08-24T14:56:53.943Z,10.43
2023-08-24T14:59:20.730Z,13.98
2023-08-24T15:01:47.636Z,10.73
2023-08-24T15:04:14.669Z,12.95
2023-08-24T15:06:41.531Z,12.85
2023-08-24T15:09:08.728Z,13.15
2023-08-24T15:11:35.666Z,16.70
2023-08-24T15:14:02.524Z,12.17
2023-08-24T15:16:29.370Z,12.68
2023-08-24T15:18:56.194Z,13.98
2023-08-24T15:21:23.114Z,13.52
2023-08-24T15:23:49.955Z,7.82
2023-08-24T15:26:16.799Z,12.82
2023-08-24T15:29:08.795Z,19.10
2023-08-24T15:31:35.657Z,10.48
2023-08-24T15:34:02.617Z,16.37
2023-08-24T15:36:29.690Z,14.75
2023-08-24T15:38:56.504Z,13.27
2023-08-24T15:41:23.915Z,8.32
2023-08-24T15:43:50.926Z,11.20
2023-08-24T15:46:17.917Z,11.77
2023-08-24T15:48:44.990Z,11.65
2023-08-24T15:51:12.152Z,11.77
2023-08-24T15:53:39.159Z,9.48
2023-08-24T15:56:06.063Z,8.98
2023-08-24T15:58:32.922Z,6.68
2023-08-24T16:00:59.765Z,3.85
2023-08-24T16:03:26.756Z,6.93
2023-08-24T16:05:58.924Z,7.47
2023-08-24T16:08:25.949Z,5.07
2023-08-24T16:10:58.010Z,9.07
2023-08-24T16:13:26.230Z,7.35
2023-08-24T16:15:53.561Z,6.07
2023-08-24T16:18:27.746Z,5.65
2023-08-24T16:20:54.956Z,6.18
2023-08-24T16:23:22.211Z,9.43
2023-08-24T16:25:49.482Z,3.50
2023-08-24T16:28:16.434Z,5.82
2023-08-24T16:30:47.001Z,3.38
2023-08-24T16:33:13.833Z,3.90
2023-08-24T16:35:41.096Z,3.60
2023-08-24T16:38:08.023Z,4.93
2023-08-24T16:40:35.525Z,6.03
2023-08-24T16:43:02.400Z,4.93
2023-08-24T16:45:29.889Z,6.10
2023-08-24T16:47:56.915Z,6.97
2023-08-24T16:50:24.002Z,6.75
2023-08-24T16:52:50.890Z,4.90
2023-08-24T16:55:17.801Z,6.68
2023-08-24T16:57:45.765Z,4.57
2023-08-24T17:00:13.839Z,5.40
2023-08-24T17:02:41.637Z,6.35
2023-08-24T17:05:08.882Z,4.18
2023-08-24T17:07:39.937Z,6.97
2023-08-24T17:10:08.548Z,6.10
2023-08-24T17:12:36.223Z,2.95
2023-08-24T17:15:04.158Z,4.18
2023-08-24T17:17:31.341Z,3.35
2023-08-24T17:19:58.235Z,3.42
2023-08-24T17:22:25.235Z,4.77
2023-08-24T17:24:52.238Z,4.35
2023-08-24T17:27:19.168Z,5.07
2023-08-24T17:29:46.119Z,7.33
2023-08-24T17:32:13.001Z,3.42
2023-08-24T17:34:40.148Z,4.22
2023-08-24T17:37:07.000Z,3.85
2023-08-24T17:39:33.864Z,3.75
2023-08-24T17:42:00.666Z,4.00
2023-08-24T17:44:30.972Z,4.80
2023-08-24T17:46:57.910Z,8.82
2023-08-24T17:49:24.958Z,5.90
2023-08-24T17:51:52.027Z,6.75
2023-08-24T17:54:18.962Z,2.67
2023-08-24T17:56:45.920Z,3.85
2023-08-24T17:59:12.866Z,7.20
2023-08-24T18:01:39.816Z,3.28
2023-08-24T18:04:06.819Z,4.63
2023-08-24T18:06:33.631Z,3.00
2023-08-24T18:09:01.189Z,4.43
2023-08-24T18:11:28.218Z,3.38
2023-08-24T18:13:56.945Z,5.30
2023-08-24T18:16:24.043Z,6.28
2023-08-24T18:18:50.895Z,6.45
2023-08-24T18:21:17.806Z,4.00
2023-08-24T18:23:44.691Z,8.27
2023-08-24T18:26:11.713Z,2.70
2023-08-24T18:28:40.123Z,5.20
2023-08-24T18:31:07.173Z,4.60
2023-08-24T18:33:34.074Z,6.68
2023-08-24T18:36:00.906Z,3.42
2023-08-24T18:38:29.372Z,7.30
2023-08-24T18:40:56.726Z,3.30
2023-08-24T18:43:23.621Z,6.03
2023-08-24T18:46:03.969Z,3.47
2023-08-24T18:48:32.068Z,6.18
2023-08-24T18:50:59.129Z,5.95
2023-08-24T18:53:26.322Z,6.82
2023-08-24T18:55:55.397Z,4.63
2023-08-24T18:58:22.485Z,4.18
2023-08-24T19:00:49.432Z,6.25
2023-08-24T19:03:16.370Z,3.40
2023-08-24T19:05:44.859Z,4.38
2023-08-24T19:08:13.285Z,4.80
2023-08-24T19:10:40.240Z,6.35
2023-08-24T19:13:07.300Z,9.55
2023-08-24T19:15:34.192Z,7.85
2023-08-24T19:18:01.053Z,4.65
2023-08-24T19:20:28.007Z,6.65
2023-08-24T19:22:54.814Z,7.20
2023-08-24T19:25:21.765Z,4.18
2023-08-24T19:27:48.600Z,6.77
2023-08-24T19:30:15.498Z,6.18
2023-08-24T19:32:42.423Z,4.35
2023-08-24T19:35:10.717Z,5.13
2023-08-24T19:37:37.952Z,5.32
2023-08-24T19:40:07.196Z,4.97
2023-08-24T19:42:34.104Z,5.65
2023-08-24T19:45:02.073Z,4.47
2023-08-24T19:47:29.030Z,4.30
2023-08-24T19:49:56.905Z,6.90
2023-08-24T19:52:23.736Z,4.00
2023-08-24T19:54:51.065Z,4.68
2023-08-24T19:57:18.280Z,4.30
2023-08-24T19:59:45.058Z,4.50
2023-08-24T20:02:12.081Z,6.17
2023-08-24T20:04:40.072Z,7.43
2023-08-24T20:07:07.041Z,7.63
2023-08-24T20:09:34.849Z,5.10
2023-08-24T20:12:01.811Z,5.60
2023-08-24T20:14:28.882Z,5.50
2023-08-24T20:16:56.043Z,7.00
2023-08-24T20:19:22.876Z,9.48
2023-08-24T20:21:49.962Z,8.52
2023-08-24T20:24:16.817Z,8.32
2023-08-24T20:26:43.760Z,8.80
2023-08-24T20:29:10.644Z,6.30
2023-08-24T20:31:38.048Z,9.07
2023-08-24T20:34:05.109Z,7.18
2023-08-24T20:36:32.095Z,8.00
2023-08-24T20:38:58.912Z,5.90
2023-08-24T20:41:25.754Z,7.57
2023-08-24T20:43:52.740Z,6.27
2023-08-24T20:46:20.330Z,8.32
2023-08-24T20:48:47.369Z,8.38
2023-08-24T20:51:14.606Z,7.60
2023-08-24T20:53:41.454Z,8.43
2023-08-24T20:56:09.554Z,7.80
2023-08-24T20:58:36.516Z,6.90
2023-08-24T21:01:07.400Z,7.68
2023-08-24T21:03:34.807Z,11.00
2023-08-24T21:06:02.787Z,8.88
2023-08-24T21:08:32.738Z,11.88
2023-08-24T21:11:00.210Z,11.20
2023-08-24T21:13:27.173Z,9.52
2023-08-24T21:15:58.337Z,10.10
2023-08-24T21:18:25.307Z,11.73
2023-08-24T21:20:58.207Z,13.40
2023-08-24T21:23:25.402Z,13.35
2023-08-24T21:25:52.281Z,11.05
2023-08-24T21:28:19.185Z,10.80
2023-08-24T21:30:46.245Z,8.73
2023-08-24T21:33:13.185Z,10.40
2023-08-24T21:35:40.176Z,10.10
2023-08-24T21:38:06.992Z,10.33
2023-08-24T21:40:33.901Z,9.75
2023-08-24T21:43:03.678Z,13.25
2023-08-24T21:45:30.484Z,12.60
2023-08-24T21:47:57.702Z,12.30
2023-08-24T21:50:25.499Z,16.73
2023-08-24T21:52:52.682Z,12.52
2023-08-24T21:55:19.513Z,14.75
2023-08-24T21:57:46.345Z,11.03
2023-08-24T22:00:14.433Z,14.32
2023-08-24T22:02:41.782Z,10.95
2023-08-24T22:05:09.309Z,8.10
2023-08-24T22:07:36.884Z,12.50
2023-08-24T22:10:04.794Z,12.57
2023-08-24T22:12:31.674Z,11.97
2023-08-24T22:14:58.715Z,13.32
2023-08-24T22:17:25.852Z,10.07
2023-08-24T22:19:52.753Z,11.63
2023-08-24T22:22:21.977Z,13.30
2023-08-24T22:24:49.170Z,13.57
2023-08-24T22:27:16.135Z,12.87
2023-08-24T22:29:43.170Z,13.75
2023-08-24T22:32:12.772Z,12.20
2023-08-24T22:34:40.453Z,15.77
2023-08-24T22:37:07.331Z,11.98
2023-08-24T22:39:34.197Z,13.90
2023-08-24T22:42:01.267Z,13.90
2023-08-24T22:44:28.115Z,15.25
2023-08-24T22:46:55.013Z,17.63
2023-08-24T22:49:21.988Z,15.57
2023-08-24T22:51:48.836Z,16.33
2023-08-24T22:54:17.710Z,14.88
2023-08-24T22:56:45.128Z,19.13
2023-08-24T22:59:12.713Z,16.20
2023-08-24T23:01:39.668Z,16.30
2023-08-24T23:04:06.730Z,17.23
2023-08-24T23:06:55.663Z,20.50
2023-08-24T23:09:23.233Z,20.80
2023-08-24T23:11:51.043Z,18.15
2023-08-24T23:14:21.498Z,17.75
2023-08-24T23:16:49.288Z,16.02
2023-08-24T23:19:16.180Z,19.85
2023-08-24T23:21:43.147Z,19.35
2023-08-24T23:24:36.319Z,25.38
2023-08-24T23:26:56.920Z,21.67
2023-08-24T23:29:24.028Z,17.48
2023-08-24T23:31:50.961Z,19.80
2023-08-24T23:34:18.031Z,19.88
2023-08-24T23:36:45.487Z,16.75
2023-08-24T23:39:12.914Z,20.17
2023-08-24T23:41:39.740Z,19.98
2023-08-24T23:44:06.585Z,19.60
2023-08-24T23:46:33.492Z,21.10
2023-08-24T23:49:00.423Z,19.48
2023-08-24T23:51:27.305Z,17.38
2023-08-24T23:53:55.437Z,19.30
2023-08-24T23:56:22.513Z,17.92
2023-08-24T23:58:51.353Z,21.08
